Time;durP1;ratioP1;P1;durP2;ratioP2;P2;SDS_P1;SDS_P2;PMS_P1;PMS_P2;Temp;Humidity;BMP_temperature;BMP_pressure;BME280_temperature;BME280_humidity;BME280_pressure;Samples;Min_cycle;Max_cycle;Signal;HPM_P1;HPM_P2
2023/03/14 00:01:37;;;;;;;0.80;0.80;;;17.60;63.70;;;;;;4986592;28;43354;-73
2023/03/14 00:04:05;;;;;;;0.83;0.83;;;17.60;63.80;;;;;;4968614;28;45976;-72
2023/03/14 00:06:33;;;;;;;0.87;0.87;;;17.60;63.90;;;;;;4968136;28;44329;-73
2023/03/14 00:09:01;;;;;;;0.90;0.90;;;17.50;63.90;;;;;;4972123;28;43449;-71
2023/03/14 00:11:29;;;;;;;0.77;0.77;;;17.50;64.20;;;;;;4991142;28;43477;-73
2023/03/14 00:13:59;;;;;;;0.90;0.90;;;17.50;64.00;;;;;;4986167;28;43957;-73
2023/03/14 00:16:27;;;;;;;1.00;1.00;;;17.50;63.90;;;;;;4986217;28;43461;-73
2023/03/14 00:18:55;;;;;;;0.73;0.73;;;17.50;63.90;;;;;;4972328;28;43565;-71
2023/03/14 00:21:23;;;;;;;0.60;0.60;;;17.50;64.00;;;;;;4986595;28;43509;-72
2023/03/14 00:23:51;;;;;;;0.90;0.90;;;17.50;64.10;;;;;;4985987;28;43934;-72
2023/03/14 00:26:20;;;;;;;0.80;0.80;;;17.50;64.30;;;;;;4968531;28;44340;-71
2023/03/14 00:28:48;;;;;;;0.83;0.83;;;17.50;64.10;;;;;;4970753;28;43379;-74
2023/03/14 00:31:18;;;;;;;0.80;0.80;;;17.70;63.90;;;;;;4989356;28;43925;-72
2023/03/14 00:33:46;;;;;;;0.73;0.73;;;17.80;63.50;;;;;;4971536;28;44713;-72
2023/03/14 00:36:15;;;;;;;0.57;0.57;;;17.80;63.30;;;;;;4989157;28;43505;-72
2023/03/14 00:38:44;;;;;;;0.70;0.70;;;17.80;63.20;;;;;;4971772;28;43552;-72
2023/03/14 00:41:12;;;;;;;0.80;0.80;;;17.80;63.50;;;;;;4989670;28;43445;-73
2023/03/14 00:43:41;;;;;;;0.83;0.83;;;17.80;63.50;;;;;;4989184;28;43624;-73
2023/03/14 00:46:12;;;;;;;0.80;0.80;;;17.80;63.40;;;;;;4989165;28;43771;-73
2023/03/14 00:48:41;;;;;;;0.70;0.70;;;17.80;63.50;;;;;;4989012;28;43444;-73
2023/03/14 00:51:11;;;;;;;0.73;0.73;;;17.70;63.50;;;;;;4972078;28;43598;-72
2023/03/14 00:53:39;;;;;;;0.70;0.70;;;17.60;63.60;;;;;;4970329;28;45826;-72
2023/03/14 00:56:10;;;;;;;0.70;0.70;;;17.60;63.80;;;;;;4971436;28;44701;-73
2023/03/14 00:58:38;;;;;;;0.80;0.80;;;17.60;63.90;;;;;;4968773;28;43390;-71
2023/03/14 01:01:10;;;;;;;0.77;0.77;;;17.60;63.80;;;;;;4988995;28;43553;-72
2023/03/14 01:03:38;;;;;;;0.80;0.80;;;17.60;63.80;;;;;;4989038;28;43571;-72
2023/03/14 01:06:15;;;;;;;0.60;0.60;;;17.60;63.80;;;;;;4978106;28;45674;-71
2023/03/14 01:08:43;;;;;;;0.67;0.67;;;17.60;63.90;;;;;;4970521;28;43457;-71
2023/03/14 01:11:13;;;;;;;0.70;0.70;;;17.50;63.90;;;;;;4993835;28;43860;-72
2023/03/14 01:13:43;;;;;;;0.80;0.80;;;17.50;64.10;;;;;;4988739;28;43843;-72
2023/03/14 01:16:11;;;;;;;0.70;0.70;;;17.70;64.10;;;;;;4988455;28;43462;-72
2023/03/14 01:18:40;;;;;;;0.80;0.80;;;17.70;63.70;;;;;;4989114;28;43870;-72
2023/03/14 01:21:11;;;;;;;0.67;0.67;;;17.80;63.50;;;;;;4977405;28;43948;-73
2023/03/14 01:23:41;;;;;;;0.60;0.60;;;17.80;63.40;;;;;;4982312;28;43923;-72
2023/03/14 01:26:12;;;;;;;0.60;0.60;;;17.70;63.40;;;;;;4970660;28;45190;-72
2023/03/14 01:28:41;;;;;;;0.80;0.80;;;17.70;63.70;;;;;;4970776;28;43552;-72
2023/03/14 01:31:11;;;;;;;0.80;0.80;;;17.70;64.30;;;;;;4971115;28;43417;-72
2023/03/14 01:33:39;;;;;;;0.60;0.60;;;17.70;63.70;;;;;;4988342;28;44470;-72
2023/03/14 01:36:08;;;;;;;0.70;0.70;;;17.70;63.70;;;;;;4970011;28;44494;-71
2023/03/14 01:38:38;;;;;;;0.70;0.70;;;17.60;63.70;;;;;;4970272;28;43988;-73
2023/03/14 01:41:08;;;;;;;0.70;0.70;;;17.60;63.80;;;;;;4970345;28;43396;-72
2023/03/14 01:43:36;;;;;;;0.70;0.70;;;17.60;64.10;;;;;;4970029;28;45780;-73
2023/03/14 01:46:30;;;;;;;0.70;0.70;;;17.60;64.00;;;;;;4988163;28;43446;-72
2023/03/14 01:49:01;;;;;;;0.60;0.60;;;17.60;63.80;;;;;;4976710;28;43416;-73
2023/03/14 01:51:32;;;;;;;0.67;0.67;;;17.60;63.90;;;;;;4971280;28;43933;-72
2023/03/14 01:54:06;;;;;;;0.70;0.70;;;17.60;64.00;;;;;;4970304;28;43922;-73
2023/03/14 01:56:35;;;;;;;0.70;0.70;;;17.60;64.10;;;;;;4966398;28;44941;-73
2023/03/14 01:59:05;;;;;;;0.67;0.67;;;17.50;64.30;;;;;;4970293;28;43374;-72
2023/03/14 02:01:35;;;;;;;0.70;0.70;;;17.60;64.10;;;;;;4971012;28;43410;-71
2023/03/14 02:04:03;;;;;;;0.80;0.80;;;17.70;63.80;;;;;;4975851;28;45988;-72
2023/03/14 02:06:36;;;;;;;0.77;0.77;;;17.80;63.60;;;;;;4970055;28;44727;-74
2023/03/14 02:09:04;;;;;;;0.60;0.60;;;17.70;63.40;;;;;;4970413;28;43436;-73
2023/03/14 02:11:36;;;;;;;0.70;0.70;;;17.70;63.40;;;;;;4970097;28;43573;-71
2023/03/14 02:14:08;;;;;;;0.80;0.80;;;17.70;63.80;;;;;;4987677;28;43606;-73
2023/03/14 02:16:55;;;;;;;0.73;0.73;;;17.70;63.70;;;;;;4987214;28;43456;-73
2023/03/14 02:19:52;;;;;;;0.70;0.70;;;17.70;63.70;;;;;;4964525;28;43440;-73
2023/03/14 02:22:32;;;;;;;0.50;0.50;;;17.70;63.70;;;;;;4970801;28;43484;-73
2023/03/14 02:25:07;;;;;;;0.70;0.70;;;17.60;63.80;;;;;;4970283;28;45772;-73
2023/03/14 02:27:36;;;;;;;0.63;0.63;;;17.60;63.90;;;;;;4969949;28;44780;-72
2023/03/14 02:30:06;;;;;;;0.77;0.77;;;17.60;64.10;;;;;;4969731;28;43411;-72
2023/03/14 02:32:35;;;;;;;0.70;0.70;;;17.60;64.00;;;;;;4970399;28;43893;-72
2023/03/14 02:35:05;;;;;;;0.70;0.70;;;17.60;63.90;;;;;;4969811;28;45943;-73
2023/03/14 02:37:36;;;;;;;0.80;0.80;;;17.60;63.90;;;;;;4969758;28;44607;-72
2023/03/14 02:40:07;;;;;;;0.67;0.67;;;17.60;64.00;;;;;;4969034;28;43449;-72
2023/03/14 02:42:37;;;;;;;0.60;0.60;;;17.50;64.00;;;;;;4968537;28;43539;-73
2023/03/14 02:45:30;;;;;;;0.70;0.70;;;17.50;64.30;;;;;;4985343;28;43764;-73
2023/03/14 02:47:59;;;;;;;0.73;0.73;;;17.60;64.00;;;;;;4969512;28;44767;-71
2023/03/14 02:50:30;;;;;;;0.73;0.73;;;17.70;63.70;;;;;;4969542;28;43469;-72
2023/03/14 02:52:58;;;;;;;0.60;0.60;;;17.80;63.50;;;;;;4970220;28;44066;-72
2023/03/14 02:55:27;;;;;;;0.60;0.60;;;17.80;63.50;;;;;;4969525;28;45807;-73
2023/03/14 02:58:00;;;;;;;0.80;0.80;;;17.80;63.50;;;;;;4969136;28;43437;-72
2023/03/14 03:00:30;;;;;;;0.60;0.60;;;17.70;63.70;;;;;;4969071;28;43947;-72
2023/03/14 03:02:58;;;;;;;0.80;0.80;;;17.70;63.60;;;;;;4987521;28;43376;-73
2023/03/14 03:05:26;;;;;;;0.53;0.53;;;17.70;63.60;;;;;;4986641;28;43955;-72
2023/03/14 03:07:54;;;;;;;0.80;0.80;;;17.70;63.70;;;;;;4969151;28;45024;-72
2023/03/14 03:10:22;;;;;;;0.50;0.50;;;17.60;63.70;;;;;;4991675;28;43457;-73
2023/03/14 03:12:51;;;;;;;0.53;0.53;;;17.60;63.80;;;;;;4969937;28;43409;-72
2023/03/14 03:15:26;;;;;;;0.70;0.70;;;17.60;64.10;;;;;;4969070;28;45980;-72
2023/03/14 03:17:54;;;;;;;0.70;0.70;;;17.60;64.00;;;;;;4969489;28;43442;-73
2023/03/14 03:20:22;;;;;;;0.80;0.80;;;17.60;63.90;;;;;;4969052;28;43553;-73
2023/03/14 03:22:50;;;;;;;0.57;0.57;;;17.60;63.90;;;;;;4986997;28;43485;-73
2023/03/14 03:25:18;;;;;;;0.60;0.60;;;17.60;64.00;;;;;;4968395;28;45547;-72
2023/03/14 03:27:46;;;;;;;0.40;0.40;;;17.50;64.00;;;;;;4968783;28;44682;-72
2023/03/14 03:30:18;;;;;;;0.80;0.80;;;17.50;64.20;;;;;;4969292;28;43399;-72
2023/03/14 03:32:48;;;;;;;0.57;0.57;;;17.50;64.30;;;;;;4969649;28;43485;-72
2023/03/14 03:35:16;;;;;;;0.73;0.73;;;17.60;63.90;;;;;;4968183;28;45582;-73
2023/03/14 03:37:44;;;;;;;0.70;0.70;;;17.70;63.70;;;;;;4986787;28;43405;-71
2023/03/14 03:40:12;;;;;;;0.67;0.67;;;17.70;63.60;;;;;;4969163;28;44010;-72
2023/03/14 03:42:40;;;;;;;0.63;0.63;;;17.70;63.70;;;;;;4969569;28;43681;-72
2023/03/14 03:45:10;;;;;;;0.57;0.57;;;17.60;63.70;;;;;;4968622;28;44112;-73
2023/03/14 03:47:50;;;;;;;0.70;0.70;;;17.60;63.90;;;;;;4969008;28;44768;-72
2023/03/14 03:50:18;;;;;;;0.80;0.80;;;17.60;63.80;;;;;;4968137;28;43434;-72
2023/03/14 03:52:46;;;;;;;0.50;0.50;;;17.60;63.80;;;;;;4969640;28;43506;-72
2023/03/14 03:55:14;;;;;;;0.60;0.60;;;17.60;63.80;;;;;;4968693;28;45246;-73
2023/03/14 03:57:43;;;;;;;0.50;0.50;;;17.60;63.90;;;;;;4968461;28;44813;-72
2023/03/14 04:00:12;;;;;;;0.70;0.70;;;17.50;64.00;;;;;;4968431;28;43449;-73
2023/03/14 04:02:43;;;;;;;0.67;0.67;;;17.50;64.30;;;;;;4984475;28;44176;-72
2023/03/14 04:05:17;;;;;;;0.70;0.70;;;17.60;64.10;;;;;;4974553;28;45011;-73
2023/03/14 04:07:51;;;;;;;0.60;0.60;;;17.70;63.70;;;;;;4972396;28;44892;-73
2023/03/14 04:10:24;;;;;;;0.60;0.60;;;17.70;63.60;;;;;;4973046;28;43494;-72
2023/03/14 04:13:04;;;;;;;0.60;0.60;;;17.70;63.70;;;;;;4967574;28;43632;-73
2023/03/14 04:15:34;;;;;;;0.80;0.80;;;17.70;63.70;;;;;;4975541;28;46012;-72
2023/03/14 04:18:09;;;;;;;0.63;0.63;;;17.60;63.90;;;;;;4989325;28;43470;-72
2023/03/14 04:20:38;;;;;;;0.60;0.60;;;17.70;63.90;;;;;;4989586;28;43398;-72
2023/03/14 04:23:06;;;;;;;0.57;0.57;;;17.60;63.80;;;;;;4972161;28;43809;-72
2023/03/14 04:25:35;;;;;;;0.50;0.50;;;17.60;63.80;;;;;;4971675;28;46029;-72
2023/03/14 04:28:05;;;;;;;0.60;0.60;;;17.60;63.90;;;;;;4971893;28;45022;-72
2023/03/14 04:30:33;;;;;;;0.70;0.70;;;17.60;64.00;;;;;;4971146;28;43493;-72
2023/03/14 04:33:16;;;;;;;0.70;0.70;;;17.60;64.30;;;;;;4972235;28;43907;-72
2023/03/14 04:35:54;;;;;;;0.43;0.43;;;17.60;64.10;;;;;;4970740;28;45721;-72
2023/03/14 04:38:22;;;;;;;0.73;0.70;;;17.70;63.80;;;;;;4971817;28;44619;-73
2023/03/14 04:40:51;;;;;;;0.60;0.60;;;17.70;63.70;;;;;;4989134;28;43458;-72
2023/03/14 04:43:22;;;;;;;0.53;0.53;;;17.70;63.70;;;;;;4971596;28;43596;-73
2023/03/14 04:45:54;;;;;;;0.50;0.50;;;17.70;63.80;;;;;;4971454;28;44071;-73
2023/03/14 04:48:22;;;;;;;0.50;0.50;;;17.60;63.90;;;;;;4965584;28;44949;-72
2023/03/14 04:50:52;;;;;;;0.83;0.83;;;17.70;63.90;;;;;;4971598;28;43465;-73
2023/03/14 04:53:21;;;;;;;0.40;0.40;;;17.60;63.80;;;;;;4983130;28;43405;-73
2023/03/14 04:55:51;;;;;;;0.70;0.70;;;17.60;63.80;;;;;;4973621;28;46111;-72
2023/03/14 04:58:20;;;;;;;0.50;0.50;;;17.60;63.90;;;;;;4970832;28;43548;-72
2023/03/14 05:00:50;;;;;;;0.60;0.60;;;17.60;64.00;;;;;;4970880;28;43368;-72
2023/03/14 05:03:40;;;;;;;0.60;0.60;;;17.60;64.30;;;;;;4969593;28;43556;-72
2023/03/14 05:06:12;;;;;;;0.70;0.70;;;17.50;64.10;;;;;;4985688;28;43592;-73
2023/03/14 05:09:04;;;;;;;0.50;0.50;;;17.60;64.00;;;;;;4965358;28;43529;-72
2023/03/14 05:11:41;;;;;;;0.40;0.40;;;17.60;64.10;;;;;;4981877;28;43351;-73
2023/03/14 05:14:23;;;;;;;0.60;0.60;;;17.60;64.10;;;;;;4969524;28;43407;-72
2023/03/14 05:17:03;;;;;;;0.53;0.53;;;17.50;64.20;;;;;;4985693;28;43534;-72
2023/03/14 05:19:50;;;;;;;0.60;0.60;;;17.50;64.40;;;;;;4984312;28;43432;-73
2023/03/14 05:22:36;;;;;;;0.60;0.60;;;17.60;64.10;;;;;;4970775;28;43474;-73
2023/03/14 05:25:24;;;;;;;0.60;0.60;;;17.70;64.30;;;;;;4988300;28;43525;-72
2023/03/14 05:28:11;;;;;;;0.60;0.60;;;17.80;63.50;;;;;;4968004;28;44066;-73
2023/03/14 05:31:07;;;;;;;0.60;0.60;;;17.80;63.40;;;;;;4976746;28;45066;-72
2023/03/14 05:34:04;;;;;;;0.80;0.80;;;17.70;63.60;;;;;;4986379;28;43402;-72
2023/03/14 05:36:37;;;;;;;0.60;0.60;;;17.70;63.70;;;;;;4971148;28;43498;-72
2023/03/14 05:39:07;;;;;;;0.50;0.50;;;17.70;63.60;;;;;;4985372;28;43955;-71
2023/03/14 05:41:55;;;;;;;0.60;0.60;;;17.70;63.70;;;;;;4970215;28;43450;-72
2023/03/14 05:44:49;;;;;;;0.60;0.60;;;17.70;63.80;;;;;;4983271;28;43520;-73
2023/03/14 05:47:31;;;;;;;0.70;0.70;;;17.60;63.90;;;;;;4989139;28;43440;-73
2023/03/14 05:50:09;;;;;;;0.60;0.60;;;17.60;64.10;;;;;;4969693;28;45933;-72
2023/03/14 05:53:16;;;;;;;0.50;0.50;;;17.60;64.00;;;;;;4907862;29;44579;-72
2023/03/14 05:55:56;;;;;;;0.63;0.63;;;17.60;63.90;;;;;;4892307;29;43416;-73
2023/03/14 05:58:41;;;;;;;0.60;0.60;;;17.60;64.00;;;;;;4941819;28;43565;-72
2023/03/14 06:01:25;;;;;;;0.67;0.67;;;17.60;64.10;;;;;;4970180;28;46015;-72
2023/03/14 06:04:11;;;;;;;0.50;0.50;;;17.50;64.10;;;;;;4965779;28;44493;-72
2023/03/14 06:06:39;;;;;;;0.60;0.60;;;17.50;64.30;;;;;;4987574;28;43445;-73
2023/03/14 06:09:09;;;;;;;0.67;0.67;;;17.50;64.00;;;;;;4974939;28;43604;-72
2023/03/14 06:11:41;;;;;;;0.50;0.50;;;17.60;64.10;;;;;;4974174;28;44136;-72
2023/03/14 06:14:09;;;;;;;0.50;0.50;;;17.60;64.10;;;;;;4973614;28;44923;-72
2023/03/14 06:16:41;;;;;;;0.50;0.50;;;17.50;64.20;;;;;;4970562;28;43829;-72
2023/03/14 06:19:10;;;;;;;0.53;0.53;;;17.50;64.30;;;;;;4970781;28;43569;-72
2023/03/14 06:21:38;;;;;;;0.60;0.60;;;17.50;64.50;;;;;;4987623;28;43721;-72
2023/03/14 06:24:06;;;;;;;0.50;0.50;;;17.60;64.20;;;;;;4969284;28;44810;-72
2023/03/14 06:26:41;;;;;;;0.60;0.60;;;17.70;63.90;;;;;;4969627;28;43502;-73
2023/03/14 06:29:10;;;;;;;0.60;0.60;;;17.80;63.50;;;;;;4970746;28;43459;-72
2023/03/14 06:31:38;;;;;;;0.40;0.40;;;17.80;63.40;;;;;;4969889;28;45763;-72
2023/03/14 06:34:08;;;;;;;0.70;0.70;;;17.80;63.40;;;;;;4969778;28;44474;-72
2023/03/14 06:36:36;;;;;;;0.60;0.60;;;17.80;63.80;;;;;;4975985;28;44256;-73
2023/03/14 06:39:04;;;;;;;0.60;0.60;;;17.80;63.60;;;;;;4970722;28;43563;-73
2023/03/14 06:41:34;;;;;;;0.53;0.53;;;17.70;63.50;;;;;;4969756;28;43848;-71
2023/03/14 06:44:04;;;;;;;0.50;0.50;;;17.70;63.70;;;;;;4969832;28;44790;-73
2023/03/14 06:46:32;;;;;;;0.40;0.40;;;17.70;63.90;;;;;;4968782;28;43535;-72
2023/03/14 06:49:01;;;;;;;0.40;0.40;;;17.60;63.90;;;;;;4970295;28;43501;-73
2023/03/14 06:51:29;;;;;;;0.50;0.50;;;17.60;64.10;;;;;;4969728;28;45410;-72
2023/03/14 06:53:57;;;;;;;0.60;0.60;;;17.60;63.90;;;;;;4968680;28;44567;-72
2023/03/14 06:56:28;;;;;;;0.50;0.50;;;17.60;63.80;;;;;;4967261;28;43398;-73
2023/03/14 06:58:57;;;;;;;0.40;0.40;;;17.60;63.90;;;;;;4976243;28;43570;-72
2023/03/14 07:01:30;;;;;;;0.40;0.40;;;17.60;64.10;;;;;;4969377;28;44030;-72
2023/03/14 07:04:05;;;;;;;0.50;0.50;;;17.60;64.20;;;;;;4964303;28;45003;-73
2023/03/14 07:06:36;;;;;;;0.50;0.50;;;17.50;64.30;;;;;;4969424;28;44001;-72
2023/03/14 07:09:05;;;;;;;0.70;0.70;;;17.60;64.30;;;;;;4987456;28;43458;-73
2023/03/14 07:11:36;;;;;;;0.60;0.60;;;17.70;63.90;;;;;;4965614;28;44053;-72
2023/03/14 07:14:05;;;;;;;0.50;0.50;;;17.80;63.60;;;;;;4973580;28;43406;-72
2023/03/14 07:16:34;;;;;;;0.40;0.40;;;17.80;63.50;;;;;;4987158;28;44152;-72
2023/03/14 07:19:02;;;;;;;0.60;0.60;;;17.80;63.50;;;;;;4987836;28;43401;-73
2023/03/14 07:21:34;;;;;;;0.50;0.50;;;17.70;63.80;;;;;;4969331;28;44977;-71
2023/03/14 07:24:06;;;;;;;0.50;0.40;;;17.70;63.70;;;;;;4969491;28;43314;-72
2023/03/14 07:26:34;;;;;;;0.60;0.60;;;17.70;63.60;;;;;;4973919;28;43424;-73
2023/03/14 07:29:03;;;;;;;0.47;0.47;;;17.70;63.70;;;;;;4987340;28;43954;-71
2023/03/14 07:31:32;;;;;;;0.60;0.60;;;17.70;63.90;;;;;;4986895;28;44638;-72
2023/03/14 07:34:02;;;;;;;0.60;0.60;;;17.60;63.90;;;;;;4968933;28;44784;-72
2023/03/14 07:36:35;;;;;;;0.60;0.60;;;17.60;64.20;;;;;;4968736;28;43412;-74
2023/03/14 07:39:04;;;;;;;0.40;0.40;;;17.60;64.00;;;;;;4970081;28;43509;-71
2023/03/14 07:41:50;;;;;;;0.53;0.53;;;17.60;63.90;;;;;;4984003;28;44020;-71
2023/03/14 07:44:36;;;;;;;0.50;0.50;;;17.60;64.10;;;;;;4983918;28;43388;-72
2023/03/14 07:47:04;;;;;;;0.43;0.43;;;17.60;64.90;;;;;;4986746;28;43413;-72
2023/03/14 07:49:34;;;;;;;0.50;0.50;;;17.50;64.20;;;;;;4969388;28;43545;-72
2023/03/14 07:52:01;;;;;;;0.43;0.43;;;17.50;64.40;;;;;;4986776;28;43760;-72
2023/03/14 07:54:30;;;;;;;0.30;0.30;;;17.60;64.30;;;;;;4986487;28;43986;-72
2023/03/14 07:56:58;;;;;;;0.50;0.50;;;17.70;63.90;;;;;;4965503;28;43460;-73
2023/03/14 07:59:26;;;;;;;0.50;0.50;;;17.80;63.70;;;;;;4969484;28;43618;-72
2023/03/14 08:01:54;;;;;;;0.50;0.50;;;17.80;63.50;;;;;;4968674;28;46057;-73
2023/03/14 08:04:22;;;;;;;0.50;0.50;;;17.80;63.70;;;;;;4986308;28;43418;-72
2023/03/14 08:06:52;;;;;;;0.50;0.50;;;17.70;63.90;;;;;;4986588;28;43409;-71
2023/03/14 08:09:20;;;;;;;0.63;0.50;;;17.70;63.80;;;;;;4988471;28;43466;-72
2023/03/14 08:11:50;;;;;;;0.40;0.40;;;17.70;63.70;;;;;;4988689;28;43609;-73
2023/03/14 08:14:18;;;;;;;0.50;0.50;;;17.70;63.80;;;;;;4986068;28;43418;-72
2023/03/14 08:16:45;;;;;;;0.50;0.50;;;17.70;64.00;;;;;;4967946;28;43472;-72
2023/03/14 08:19:13;;;;;;;0.40;0.40;;;17.60;64.00;;;;;;4986933;28;43449;-73
2023/03/14 08:21:41;;;;;;;0.40;0.40;;;17.60;64.20;;;;;;4985712;28;44346;-73
2023/03/14 08:24:11;;;;;;;0.60;0.60;;;17.60;64.10;;;;;;4986042;28;43349;-73
2023/03/14 08:26:38;;;;;;;0.57;0.57;;;17.60;64.00;;;;;;4985870;28;43477;-71
2023/03/14 08:29:07;;;;;;;0.40;0.40;;;17.60;64.10;;;;;;4969164;28;43438;-72
2023/03/14 08:31:35;;;;;;;0.47;0.47;;;17.60;64.20;;;;;;4986151;28;43778;-71
2023/03/14 08:34:04;;;;;;;0.50;0.50;;;17.60;64.30;;;;;;4986228;28;43943;-72
2023/03/14 08:36:32;;;;;;;0.40;0.40;;;17.50;64.40;;;;;;4986044;28;43346;-73
2023/03/14 08:39:00;;;;;;;0.37;0.37;;;17.60;64.40;;;;;;4968721;28;43391;-72
2023/03/14 08:41:29;;;;;;;0.60;0.60;;;17.70;64.10;;;;;;4981641;28;43956;-73
2023/03/14 08:43:57;;;;;;;0.50;0.50;;;17.70;63.80;;;;;;4983643;28;43769;-71
2023/03/14 08:46:25;;;;;;;0.43;0.43;;;17.70;63.70;;;;;;4985848;28;43383;-73
2023/03/14 08:48:53;;;;;;;0.33;0.33;;;17.70;63.70;;;;;;4987097;28;43458;-73
2023/03/14 08:51:21;;;;;;;0.40;0.40;;;17.70;64.00;;;;;;4989109;28;43601;-72
2023/03/14 08:53:49;;;;;;;0.40;0.40;;;17.70;64.00;;;;;;4988855;28;43369;-72
2023/03/14 08:56:17;;;;;;;0.50;0.50;;;17.70;63.80;;;;;;4970194;28;43426;-73
2023/03/14 08:58:46;;;;;;;0.40;0.40;;;17.70;63.90;;;;;;4987684;28;43446;-71
2023/03/14 09:01:14;;;;;;;0.20;0.20;;;17.70;64.00;;;;;;4989034;28;43918;-71
2023/03/14 09:03:42;;;;;;;0.50;0.50;;;17.60;64.00;;;;;;4988922;28;43492;-73
2023/03/14 09:06:10;;;;;;;0.50;0.50;;;17.60;64.20;;;;;;4989412;28;43686;-72
2023/03/14 09:08:38;;;;;;;0.37;0.37;;;17.60;64.20;;;;;;4972330;28;43695;-72
2023/03/14 09:11:08;;;;;;;0.60;0.60;;;17.70;64.00;;;;;;4993563;28;43962;-72
2023/03/14 09:13:36;;;;;;;0.50;0.50;;;17.80;63.80;;;;;;4988244;28;43422;-73
2023/03/14 09:16:06;;;;;;;0.50;0.50;;;17.80;63.70;;;;;;4972016;28;43387;-72
2023/03/14 09:18:34;;;;;;;0.40;0.40;;;17.70;63.70;;;;;;4989400;28;43450;-72
2023/03/14 09:21:05;;;;;;;0.30;0.30;;;17.70;63.90;;;;;;4971068;28;45750;-72
2023/03/14 09:23:33;;;;;;;0.40;0.40;;;17.70;64.00;;;;;;4970662;28;45270;-74
2023/03/14 09:26:01;;;;;;;0.30;0.30;;;17.70;63.90;;;;;;4988504;28;43429;-74
2023/03/14 09:28:30;;;;;;;0.50;0.50;;;17.70;63.80;;;;;;4971474;28;43821;-72
2023/03/14 09:30:58;;;;;;;0.40;0.40;;;17.70;64.00;;;;;;4988432;28;43752;-72
2023/03/14 09:33:27;;;;;;;0.40;0.40;;;17.60;63.90;;;;;;4988188;28;43462;-74
2023/03/14 09:35:59;;;;;;;0.50;0.50;;;17.60;64.10;;;;;;4987905;28;43969;-73
2023/03/14 09:38:27;;;;;;;0.40;0.40;;;17.60;64.40;;;;;;4971106;28;43454;-72
2023/03/14 09:40:55;;;;;;;0.30;0.30;;;17.60;64.10;;;;;;4988524;28;43626;-73
2023/03/14 09:43:23;;;;;;;0.57;0.57;;;17.60;63.90;;;;;;4987606;28;43475;-73
2023/03/14 09:45:53;;;;;;;0.40;0.40;;;17.60;64.10;;;;;;4988207;28;43920;-72
2023/03/14 09:48:22;;;;;;;0.50;0.50;;;17.60;64.10;;;;;;4971212;28;43782;-73
2023/03/14 09:50:54;;;;;;;0.40;0.40;;;17.60;64.20;;;;;;4982854;28;43613;-72
2023/03/14 09:53:24;;;;;;;0.37;0.37;;;17.50;64.50;;;;;;4982551;28;43377;-73
2023/03/14 09:55:53;;;;;;;0.63;0.63;;;17.70;64.40;;;;;;4988173;28;43441;-72
2023/03/14 09:58:21;;;;;;;0.50;0.50;;;17.70;64.00;;;;;;4970745;28;43789;-73
2023/03/14 10:00:50;;;;;;;0.50;0.50;;;17.80;63.70;;;;;;4986531;28;44051;-72
2023/03/14 10:03:26;;;;;;;0.40;0.40;;;17.80;63.40;;;;;;4987850;28;43413;-73
2023/03/14 10:05:56;;;;;;;0.43;0.43;;;17.80;63.30;;;;;;4988231;28;43445;-72
2023/03/14 10:08:24;;;;;;;0.60;0.60;;;17.80;63.80;;;;;;4987907;28;43404;-72
2023/03/14 10:10:53;;;;;;;0.37;0.37;;;17.80;63.70;;;;;;4992454;28;43903;-73
2023/03/14 10:13:24;;;;;;;0.33;0.33;;;17.80;63.60;;;;;;4987630;28;43885;-73
2023/03/14 10:15:53;;;;;;;0.50;0.50;;;17.70;63.50;;;;;;4986724;28;43403;-72
2023/03/14 10:18:21;;;;;;;0.40;0.40;;;17.70;63.70;;;;;;4988019;28;43484;-72
2023/03/14 10:20:49;;;;;;;0.37;0.37;;;17.60;63.70;;;;;;4969964;28;46399;-72
2023/03/14 10:23:24;;;;;;;0.40;0.40;;;17.60;64.10;;;;;;4987523;28;43409;-71
2023/03/14 10:26:02;;;;;;;7.87;0.60;;;17.60;64.10;;;;;;4968081;28;43376;-72
2023/03/14 10:28:34;;;;;;;0.23;0.23;;;17.60;63.90;;;;;;4987799;28;43438;-73
2023/03/14 10:31:02;;;;;;;0.40;0.40;;;17.60;63.90;;;;;;4969138;28;46176;-72
2023/03/14 10:33:31;;;;;;;0.43;0.43;;;17.60;64.00;;;;;;4969853;28;44807;-72
2023/03/14 10:36:00;;;;;;;0.40;0.40;;;17.60;64.20;;;;;;4987530;28;43522;-71
2023/03/14 10:38:30;;;;;;;0.40;0.40;;;17.50;64.30;;;;;;4987341;28;43473;-72
2023/03/14 10:40:59;;;;;;;0.33;0.33;;;17.60;64.40;;;;;;4982491;28;43913;-72
2023/03/14 10:43:27;;;;;;;0.43;0.43;;;17.70;64.00;;;;;;4980783;28;44022;-73
2023/03/14 10:45:57;;;;;;;2.00;0.50;;;17.70;63.70;;;;;;4986670;28;43378;-72
2023/03/14 10:48:31;;;;;;;0.37;0.37;;;17.80;63.60;;;;;;4987823;28;43500;-72
2023/03/14 10:51:03;;;;;;;0.43;0.43;;;17.70;63.60;;;;;;4986900;28;43625;-72
2023/03/14 10:53:39;;;;;;;0.40;0.40;;;17.70;63.90;;;;;;4969321;28;44310;-72
2023/03/14 10:56:07;;;;;;;0.33;0.33;;;17.70;64.00;;;;;;4969701;28;43447;-71
2023/03/14 10:58:39;;;;;;;0.40;0.40;;;17.70;63.70;;;;;;4984510;28;43661;-71
2023/03/14 11:01:14;;;;;;;0.37;0.37;;;17.60;63.70;;;;;;4979892;28;44248;-72
2023/03/14 11:03:43;;;;;;;0.47;0.47;;;17.60;63.80;;;;;;4986948;28;43442;-72
2023/03/14 11:06:13;;;;;;;0.93;0.70;;;17.60;63.90;;;;;;4985427;28;43621;-72
2023/03/14 11:08:47;;;;;;;0.40;0.40;;;17.60;64.30;;;;;;4986507;28;43458;-72
2023/03/14 11:11:17;;;;;;;0.47;0.47;;;17.60;64.40;;;;;;4989439;28;43965;-72
2023/03/14 11:13:49;;;;;;;0.50;0.50;;;17.70;64.00;;;;;;4986813;28;43912;-72
2023/03/14 11:16:19;;;;;;;0.50;0.50;;;17.80;63.80;;;;;;4980726;28;43939;-72
2023/03/14 11:19:01;;;;;;;0.60;0.60;;;17.80;63.50;;;;;;4969675;28;43422;-72
2023/03/14 11:21:32;;;;;;;0.43;0.43;;;17.80;63.50;;;;;;4986742;28;43924;-72
2023/03/14 11:24:15;;;;;;;0.50;0.50;;;17.70;63.70;;;;;;4986901;28;43467;-71
2023/03/14 11:26:45;;;;;;;0.30;0.30;;;17.70;63.80;;;;;;4969098;28;43877;-72
2023/03/14 11:29:20;;;;;;;0.53;0.53;;;17.70;63.60;;;;;;4986986;28;43783;-71
2023/03/14 11:31:49;;;;;;;0.50;0.50;;;17.70;63.70;;;;;;4974936;28;44822;-72
2023/03/14 11:34:17;;;;;;;0.40;0.40;;;17.70;63.70;;;;;;4966250;28;44734;-72
2023/03/14 11:36:49;;;;;;;0.50;0.50;;;17.60;63.80;;;;;;4988048;28;43417;-72
2023/03/14 11:39:19;;;;;;;0.50;0.50;;;17.60;64.10;;;;;;4969606;28;43437;-72
2023/03/14 11:41:47;;;;;;;1.13;0.40;;;17.60;64.20;;;;;;4962485;28;45301;-72
2023/03/14 11:44:19;;;;;;;0.30;0.30;;;17.60;64.00;;;;;;4986342;28;43541;-73
2023/03/14 11:46:49;;;;;;;0.50;0.50;;;17.60;63.90;;;;;;4986473;28;43923;-73
2023/03/14 11:49:23;;;;;;;0.57;0.57;;;17.60;64.10;;;;;;4986746;28;43442;-72
2023/03/14 11:51:52;;;;;;;0.50;0.50;;;17.60;64.10;;;;;;4986444;28;43820;-73
2023/03/14 11:54:25;;;;;;;0.40;0.40;;;17.50;64.10;;;;;;4971396;28;44335;-71
2023/03/14 11:56:54;;;;;;;0.50;0.50;;;17.50;64.40;;;;;;4983125;28;43517;-71
2023/03/14 11:59:24;;;;;;;0.70;0.70;;;17.60;64.10;;;;;;4986756;28;43820;-72
2023/03/14 12:01:54;;;;;;;0.50;0.50;;;17.70;63.80;;;;;;4982938;28;44037;-71
2023/03/14 12:04:33;;;;;;;0.57;0.57;;;17.80;63.60;;;;;;4968718;28;44513;-73
2023/03/14 12:07:02;;;;;;;0.67;0.60;;;17.80;63.40;;;;;;4969947;28;43473;-73
2023/03/14 12:09:35;;;;;;;0.70;0.70;;;17.70;63.30;;;;;;4986259;28;43529;-71
2023/03/14 12:12:04;;;;;;;0.63;0.63;;;17.70;63.70;;;;;;4970074;28;46073;-73
2023/03/14 12:14:33;;;;;;;0.57;0.57;;;17.70;63.60;;;;;;4986197;28;43986;-72
2023/03/14 12:17:05;;;;;;;0.60;0.60;;;17.70;63.50;;;;;;4986130;28;43460;-72
2023/03/14 12:19:35;;;;;;;0.70;0.70;;;17.70;63.70;;;;;;4986816;28;43446;-72
2023/03/14 12:22:16;;;;;;;0.60;0.60;;;17.60;63.70;;;;;;4979950;28;43798;-71
2023/03/14 12:24:49;;;;;;;0.80;0.80;;;17.60;63.90;;;;;;4986970;28;43350;-72
2023/03/14 12:27:42;;;;;;;0.60;0.60;;;17.60;64.20;;;;;;4984794;28;43376;-73
2023/03/14 12:30:24;;;;;;;0.60;0.60;;;17.60;63.90;;;;;;4989334;28;43432;-72
2023/03/14 12:33:12;;;;;;;0.60;0.60;;;17.60;64.00;;;;;;4970151;28;45907;-72
2023/03/14 12:35:40;;;;;;;0.67;0.67;;;17.60;64.00;;;;;;4987063;28;43976;-72
2023/03/14 12:38:10;;;;;;;0.60;0.60;;;17.60;64.00;;;;;;4989266;28;43450;-72
2023/03/14 12:40:40;;;;;;;2.93;0.80;;;17.50;64.10;;;;;;4989151;28;44042;-72
2023/03/14 12:43:26;;;;;;;0.70;0.70;;;17.50;64.30;;;;;;4988166;28;43931;-72
2023/03/14 12:46:21;;;;;;;0.67;0.67;;;17.60;64.00;;;;;;4987915;28;43406;-72
2023/03/14 12:48:50;;;;;;;0.80;0.80;;;17.70;63.70;;;;;;4972216;28;43925;-72
2023/03/14 12:51:18;;;;;;;0.60;0.60;;;17.70;63.50;;;;;;4987478;28;43573;-71
2023/03/14 12:54:05;;;;;;;0.80;0.80;;;17.70;63.50;;;;;;4988152;28;44101;-71
2023/03/14 12:56:59;;;;;;;0.70;0.70;;;17.70;64.00;;;;;;4983998;28;43373;-71
2023/03/14 12:59:34;;;;;;;0.70;0.70;;;17.70;63.80;;;;;;4988696;28;43306;-72
2023/03/14 13:02:15;;;;;;;0.70;0.70;;;17.70;63.70;;;;;;4971332;28;43443;-71
2023/03/14 13:04:47;;;;;;;0.70;0.70;;;17.60;63.80;;;;;;4987633;28;43900;-72
2023/03/14 13:07:32;;;;;;;0.70;0.70;;;17.60;63.80;;;;;;4985460;28;43438;-72
2023/03/14 13:10:20;;;;;;;0.80;0.80;;;17.60;63.90;;;;;;4985474;28;44192;-71
2023/03/14 13:12:54;;;;;;;0.70;0.70;;;17.60;64.20;;;;;;4989163;28;43989;-72